sensor_id;sensor_type;location;lat;lon;timestamp;P1;durP1;ratioP1;P2;durP2;ratioP2
7747;SDS011;3918;42.564;23.164;2023-03-01T00:00:37;571.65;;;33.45;;
7747;SDS011;3918;42.564;23.164;2023-03-01T00:03:06;673.97;;;33.75;;
7747;SDS011;3918;42.564;23.164;2023-03-01T00:05:32;388.35;;;22.50;;
7747;SDS011;3918;42.564;23.164;2023-03-01T00:07:59;647.47;;;36.78;;
7747;SDS011;3918;42.564;23.164;2023-03-01T00:10:26;852.65;;;47.70;;
7747;SDS011;3918;42.564;23.164;2023-03-01T00:12:53;575.28;;;32.78;;
7747;SDS011;3918;42.564;23.164;2023-03-01T00:15:21;454.20;;;24.30;;
7747;SDS011;3918;42.564;23.164;2023-03-01T00:17:48;681.15;;;39.20;;
7747;SDS011;3918;42.564;23.164;2023-03-01T00:20:16;655.65;;;34.30;;
7747;SDS011;3918;42.564;23.164;2023-03-01T00:22:43;83.85;;;15.48;;
7747;SDS011;3918;42.564;23.164;2023-03-01T00:25:09;158.82;;;15.85;;
7747;SDS011;3918;42.564;23.164;2023-03-01T00:27:36;414.52;;;25.27;;
7747;SDS011;3918;42.564;23.164;2023-03-01T00:30:03;669.85;;;35.40;;
7747;SDS011;3918;42.564;23.164;2023-03-01T00:32:31;651.92;;;35.03;;
7747;SDS011;3918;42.564;23.164;2023-03-01T00:34:57;725.05;;;39.47;;
7747;SDS011;3918;42.564;23.164;2023-03-01T00:37:26;648.25;;;35.92;;
7747;SDS011;3918;42.564;23.164;2023-03-01T00:39:52;630.13;;;33.72;;
7747;SDS011;3918;42.564;23.164;2023-03-01T00:42:19;1039.18;;;56.30;;
7747;SDS011;3918;42.564;23.164;2023-03-01T00:44:47;698.25;;;34.95;;
7747;SDS011;3918;42.564;23.164;2023-03-01T00:47:14;719.05;;;36.83;;
7747;SDS011;3918;42.564;23.164;2023-03-01T00:49:40;536.55;;;28.77;;
7747;SDS011;3918;42.564;23.164;2023-03-01T00:52:07;591.88;;;30.55;;
7747;SDS011;3918;42.564;23.164;2023-03-01T00:54:35;485.50;;;27.05;;
7747;SDS011;3918;42.564;23.164;2023-03-01T00:57:02;690.72;;;38.47;;
7747;SDS011;3918;42.564;23.164;2023-03-01T00:59:29;891.72;;;46.17;;
7747;SDS011;3918;42.564;23.164;2023-03-01T01:01:56;642.15;;;33.38;;
7747;SDS011;3918;42.564;23.164;2023-03-01T01:04:24;699.92;;;39.55;;
7747;SDS011;3918;42.564;23.164;2023-03-01T01:06:50;695.72;;;36.15;;
7747;SDS011;3918;42.564;23.164;2023-03-01T01:09:17;824.83;;;41.72;;
7747;SDS011;3918;42.564;23.164;2023-03-01T01:11:46;668.72;;;43.80;;
7747;SDS011;3918;42.564;23.164;2023-03-01T01:14:14;850.72;;;51.53;;
7747;SDS011;3918;42.564;23.164;2023-03-01T01:16:42;1028.78;;;52.78;;
7747;SDS011;3918;42.564;23.164;2023-03-01T01:19:09;1104.15;;;55.40;;
7747;SDS011;3918;42.564;23.164;2023-03-01T01:21:37;731.63;;;36.05;;
7747;SDS011;3918;42.564;23.164;2023-03-01T01:24:04;1393.57;;;70.82;;
7747;SDS011;3918;42.564;23.164;2023-03-01T01:26:31;1473.22;;;82.20;;
7747;SDS011;3918;42.564;23.164;2023-03-01T01:29:01;1087.60;;;58.53;;
7747;SDS011;3918;42.564;23.164;2023-03-01T01:31:30;955.70;;;54.08;;
7747;SDS011;3918;42.564;23.164;2023-03-01T01:33:58;832.47;;;45.58;;
7747;SDS011;3918;42.564;23.164;2023-03-01T01:36:26;589.70;;;34.35;;
7747;SDS011;3918;42.564;23.164;2023-03-01T01:38:53;643.42;;;40.72;;
7747;SDS011;3918;42.564;23.164;2023-03-01T01:41:20;551.08;;;29.85;;
7747;SDS011;3918;42.564;23.164;2023-03-01T01:43:48;414.45;;;23.80;;
7747;SDS011;3918;42.564;23.164;2023-03-01T01:46:37;764.67;;;41.65;;
7747;SDS011;3918;42.564;23.164;2023-03-01T01:49:07;734.15;;;38.40;;
7747;SDS011;3918;42.564;23.164;2023-03-01T01:51:44;769.28;;;36.55;;
7747;SDS011;3918;42.564;23.164;2023-03-01T01:54:14;554.03;;;29.67;;
7747;SDS011;3918;42.564;23.164;2023-03-01T01:56:46;445.00;;;25.67;;
7747;SDS011;3918;42.564;23.164;2023-03-01T01:59:18;512.97;;;26.88;;
7747;SDS011;3918;42.564;23.164;2023-03-01T02:01:50;568.85;;;32.00;;
7747;SDS011;3918;42.564;23.164;2023-03-01T02:04:18;636.20;;;33.90;;
7747;SDS011;3918;42.564;23.164;2023-03-01T02:06:46;636.83;;;33.58;;
7747;SDS011;3918;42.564;23.164;2023-03-01T02:09:16;845.85;;;53.03;;
7747;SDS011;3918;42.564;23.164;2023-03-01T02:11:46;978.85;;;49.00;;
7747;SDS011;3918;42.564;23.164;2023-03-01T02:14:15;1263.68;;;68.85;;
7747;SDS011;3918;42.564;23.164;2023-03-01T02:16:42;1116.82;;;56.17;;
7747;SDS011;3918;42.564;23.164;2023-03-01T02:19:11;797.92;;;41.92;;
7747;SDS011;3918;42.564;23.164;2023-03-01T02:21:45;395.02;;;19.90;;
7747;SDS011;3918;42.564;23.164;2023-03-01T02:24:21;677.28;;;33.50;;
7747;SDS011;3918;42.564;23.164;2023-03-01T02:26:59;383.88;;;20.02;;
7747;SDS011;3918;42.564;23.164;2023-03-01T02:29:28;895.97;;;47.40;;
7747;SDS011;3918;42.564;23.164;2023-03-01T02:31:56;892.10;;;48.83;;
7747;SDS011;3918;42.564;23.164;2023-03-01T02:34:24;669.35;;;36.70;;
7747;SDS011;3918;42.564;23.164;2023-03-01T02:36:55;208.45;;;20.65;;
7747;SDS011;3918;42.564;23.164;2023-03-01T02:39:27;340.15;;;24.45;;
7747;SDS011;3918;42.564;23.164;2023-03-01T02:41:56;413.45;;;26.23;;
7747;SDS011;3918;42.564;23.164;2023-03-01T02:44:25;233.90;;;19.00;;
7747;SDS011;3918;42.564;23.164;2023-03-01T02:46:54;76.78;;;18.17;;
7747;SDS011;3918;42.564;23.164;2023-03-01T02:49:24;86.82;;;17.23;;
7747;SDS011;3918;42.564;23.164;2023-03-01T02:52:02;167.95;;;19.60;;
7747;SDS011;3918;42.564;23.164;2023-03-01T02:54:43;144.88;;;16.55;;
7747;SDS011;3918;42.564;23.164;2023-03-01T02:57:15;371.05;;;25.77;;
7747;SDS011;3918;42.564;23.164;2023-03-01T02:59:42;347.48;;;22.63;;
7747;SDS011;3918;42.564;23.164;2023-03-01T03:02:19;302.85;;;22.63;;
7747;SDS011;3918;42.564;23.164;2023-03-01T03:05:01;316.55;;;25.73;;
7747;SDS011;3918;42.564;23.164;2023-03-01T03:07:31;278.35;;;21.52;;
7747;SDS011;3918;42.564;23.164;2023-03-01T03:10:00;305.10;;;21.58;;
7747;SDS011;3918;42.564;23.164;2023-03-01T03:12:27;362.83;;;25.15;;
7747;SDS011;3918;42.564;23.164;2023-03-01T03:14:54;325.08;;;22.23;;
7747;SDS011;3918;42.564;23.164;2023-03-01T03:17:22;323.13;;;22.00;;
7747;SDS011;3918;42.564;23.164;2023-03-01T03:19:49;324.02;;;22.95;;
7747;SDS011;3918;42.564;23.164;2023-03-01T03:22:15;359.40;;;21.63;;
7747;SDS011;3918;42.564;23.164;2023-03-01T03:24:42;508.10;;;26.95;;
7747;SDS011;3918;42.564;23.164;2023-03-01T03:27:09;481.63;;;27.08;;
7747;SDS011;3918;42.564;23.164;2023-03-01T03:29:36;381.70;;;21.60;;
7747;SDS011;3918;42.564;23.164;2023-03-01T03:32:02;58.33;;;13.57;;
7747;SDS011;3918;42.564;23.164;2023-03-01T03:34:31;68.32;;;15.32;;
7747;SDS011;3918;42.564;23.164;2023-03-01T03:36:58;163.55;;;18.58;;
7747;SDS011;3918;42.564;23.164;2023-03-01T03:39:25;121.68;;;16.30;;
7747;SDS011;3918;42.564;23.164;2023-03-01T03:41:52;308.95;;;21.85;;
7747;SDS011;3918;42.564;23.164;2023-03-01T03:44:19;602.83;;;34.25;;
7747;SDS011;3918;42.564;23.164;2023-03-01T03:46:46;736.60;;;38.05;;
7747;SDS011;3918;42.564;23.164;2023-03-01T03:49:13;858.30;;;53.10;;
7747;SDS011;3918;42.564;23.164;2023-03-01T03:51:41;748.55;;;38.58;;
7747;SDS011;3918;42.564;23.164;2023-03-01T03:54:08;740.55;;;38.17;;
7747;SDS011;3918;42.564;23.164;2023-03-01T03:56:35;686.90;;;38.92;;
7747;SDS011;3918;42.564;23.164;2023-03-01T03:59:02;703.85;;;38.40;;
7747;SDS011;3918;42.564;23.164;2023-03-01T04:01:30;626.75;;;33.58;;
7747;SDS011;3918;42.564;23.164;2023-03-01T04:03:57;436.10;;;28.27;;
7747;SDS011;3918;42.564;23.164;2023-03-01T04:06:29;479.92;;;27.08;;
7747;SDS011;3918;42.564;23.164;2023-03-01T04:08:57;561.75;;;28.27;;
7747;SDS011;3918;42.564;23.164;2023-03-01T04:11:27;365.20;;;24.23;;
7747;SDS011;3918;42.564;23.164;2023-03-01T04:13:54;560.40;;;27.85;;
7747;SDS011;3918;42.564;23.164;2023-03-01T04:16:23;405.50;;;24.25;;
7747;SDS011;3918;42.564;23.164;2023-03-01T04:18:50;463.42;;;25.65;;
7747;SDS011;3918;42.564;23.164;2023-03-01T04:21:18;200.70;;;16.10;;
7747;SDS011;3918;42.564;23.164;2023-03-01T04:23:45;148.18;;;14.10;;
7747;SDS011;3918;42.564;23.164;2023-03-01T04:26:14;168.07;;;16.70;;
7747;SDS011;3918;42.564;23.164;2023-03-01T04:28:41;46.50;;;12.32;;
7747;SDS011;3918;42.564;23.164;2023-03-01T04:31:11;56.60;;;11.50;;
7747;SDS011;3918;42.564;23.164;2023-03-01T04:33:40;58.10;;;13.48;;
7747;SDS011;3918;42.564;23.164;2023-03-01T04:36:08;44.13;;;12.38;;
7747;SDS011;3918;42.564;23.164;2023-03-01T04:38:36;106.95;;;13.38;;
7747;SDS011;3918;42.564;23.164;2023-03-01T04:41:04;35.42;;;12.27;;
7747;SDS011;3918;42.564;23.164;2023-03-01T04:43:32;45.90;;;13.30;;
7747;SDS011;3918;42.564;23.164;2023-03-01T04:46:00;25.20;;;13.13;;
7747;SDS011;3918;42.564;23.164;2023-03-01T04:48:28;22.33;;;14.13;;
7747;SDS011;3918;42.564;23.164;2023-03-01T04:50:55;87.60;;;14.32;;
7747;SDS011;3918;42.564;23.164;2023-03-01T04:53:22;81.05;;;14.60;;
7747;SDS011;3918;42.564;23.164;2023-03-01T04:55:49;21.08;;;12.95;;
7747;SDS011;3918;42.564;23.164;2023-03-01T04:58:16;19.38;;;12.02;;
7747;SDS011;3918;42.564;23.164;2023-03-01T05:00:44;31.20;;;12.63;;
7747;SDS011;3918;42.564;23.164;2023-03-01T05:03:11;25.65;;;12.13;;
7747;SDS011;3918;42.564;23.164;2023-03-01T05:05:43;27.05;;;12.77;;
7747;SDS011;3918;42.564;23.164;2023-03-01T05:08:11;42.53;;;13.77;;
7747;SDS011;3918;42.564;23.164;2023-03-01T05:10:43;281.50;;;21.88;;
7747;SDS011;3918;42.564;23.164;2023-03-01T05:13:11;166.32;;;16.02;;
7747;SDS011;3918;42.564;23.164;2023-03-01T05:15:40;148.13;;;16.95;;
7747;SDS011;3918;42.564;23.164;2023-03-01T05:18:08;439.40;;;23.98;;
7747;SDS011;3918;42.564;23.164;2023-03-01T05:20:36;292.85;;;22.65;;
7747;SDS011;3918;42.564;23.164;2023-03-01T05:23:04;327.30;;;22.02;;
7747;SDS011;3918;42.564;23.164;2023-03-01T05:25:31;378.98;;;25.92;;
7747;SDS011;3918;42.564;23.164;2023-03-01T05:27:59;494.05;;;25.77;;
7747;SDS011;3918;42.564;23.164;2023-03-01T05:30:29;483.15;;;28.67;;
7747;SDS011;3918;42.564;23.164;2023-03-01T05:32:56;371.40;;;23.65;;
7747;SDS011;3918;42.564;23.164;2023-03-01T05:35:24;377.83;;;22.08;;
7747;SDS011;3918;42.564;23.164;2023-03-01T05:37:52;345.55;;;21.58;;
7747;SDS011;3918;42.564;23.164;2023-03-01T05:40:19;99.07;;;15.32;;
7747;SDS011;3918;42.564;23.164;2023-03-01T05:42:47;225.25;;;19.98;;
7747;SDS011;3918;42.564;23.164;2023-03-01T05:45:16;472.70;;;26.08;;
7747;SDS011;3918;42.564;23.164;2023-03-01T05:47:44;667.78;;;36.70;;
7747;SDS011;3918;42.564;23.164;2023-03-01T05:50:12;645.97;;;32.50;;
7747;SDS011;3918;42.564;23.164;2023-03-01T05:52:45;502.52;;;25.48;;
7747;SDS011;3918;42.564;23.164;2023-03-01T05:55:13;530.22;;;31.45;;
7747;SDS011;3918;42.564;23.164;2023-03-01T05:57:40;290.23;;;19.13;;
7747;SDS011;3918;42.564;23.164;2023-03-01T06:00:08;71.45;;;14.50;;
7747;SDS011;3918;42.564;23.164;2023-03-01T06:02:36;22.40;;;13.27;;
7747;SDS011;3918;42.564;23.164;2023-03-01T06:05:03;27.63;;;13.57;;
7747;SDS011;3918;42.564;23.164;2023-03-01T06:07:31;88.00;;;14.00;;
7747;SDS011;3918;42.564;23.164;2023-03-01T06:09:59;29.60;;;12.02;;
7747;SDS011;3918;42.564;23.164;2023-03-01T06:12:27;59.03;;;13.70;;
7747;SDS011;3918;42.564;23.164;2023-03-01T06:14:57;31.20;;;13.13;;
7747;SDS011;3918;42.564;23.164;2023-03-01T06:17:23;84.05;;;14.68;;
7747;SDS011;3918;42.564;23.164;2023-03-01T06:19:50;46.78;;;12.80;;
7747;SDS011;3918;42.564;23.164;2023-03-01T06:22:17;22.65;;;12.23;;
7747;SDS011;3918;42.564;23.164;2023-03-01T06:24:43;494.75;;;28.70;;
7747;SDS011;3918;42.564;23.164;2023-03-01T06:27:12;506.92;;;26.23;;
7747;SDS011;3918;42.564;23.164;2023-03-01T06:29:38;589.65;;;31.27;;
7747;SDS011;3918;42.564;23.164;2023-03-01T06:32:05;293.08;;;19.90;;
7747;SDS011;3918;42.564;23.164;2023-03-01T06:34:33;498.77;;;29.05;;
7747;SDS011;3918;42.564;23.164;2023-03-01T06:37:00;418.73;;;22.23;;
7747;SDS011;3918;42.564;23.164;2023-03-01T06:39:27;289.63;;;19.55;;
7747;SDS011;3918;42.564;23.164;2023-03-01T06:41:54;424.02;;;23.98;;
7747;SDS011;3918;42.564;23.164;2023-03-01T06:44:22;238.63;;;18.90;;
7747;SDS011;3918;42.564;23.164;2023-03-01T06:46:49;412.10;;;23.45;;
7747;SDS011;3918;42.564;23.164;2023-03-01T06:49:16;198.60;;;18.55;;
7747;SDS011;3918;42.564;23.164;2023-03-01T06:51:45;231.02;;;18.40;;
7747;SDS011;3918;42.564;23.164;2023-03-01T06:54:12;270.15;;;19.38;;
7747;SDS011;3918;42.564;23.164;2023-03-01T06:56:39;157.75;;;15.52;;
7747;SDS011;3918;42.564;23.164;2023-03-01T06:59:05;184.55;;;17.75;;
7747;SDS011;3918;42.564;23.164;2023-03-01T07:01:33;97.20;;;15.98;;
7747;SDS011;3918;42.564;23.164;2023-03-01T07:04:00;30.02;;;13.82;;
7747;SDS011;3918;42.564;23.164;2023-03-01T07:06:27;20.73;;;14.32;;
7747;SDS011;3918;42.564;23.164;2023-03-01T07:08:54;18.13;;;13.18;;
7747;SDS011;3918;42.564;23.164;2023-03-01T07:11:20;19.13;;;12.52;;
7747;SDS011;3918;42.564;23.164;2023-03-01T07:13:48;16.80;;;11.02;;
7747;SDS011;3918;42.564;23.164;2023-03-01T07:16:15;15.23;;;10.77;;
7747;SDS011;3918;42.564;23.164;2023-03-01T07:18:43;17.27;;;12.15;;
7747;SDS011;3918;42.564;23.164;2023-03-01T07:21:11;18.10;;;13.27;;
7747;SDS011;3918;42.564;23.164;2023-03-01T07:23:39;14.93;;;11.05;;
7747;SDS011;3918;42.564;23.164;2023-03-01T07:26:06;14.85;;;10.98;;
7747;SDS011;3918;42.564;23.164;2023-03-01T07:28:33;13.82;;;10.32;;
7747;SDS011;3918;42.564;23.164;2023-03-01T07:31:01;16.98;;;10.57;;
7747;SDS011;3918;42.564;23.164;2023-03-01T07:33:28;13.45;;;10.60;;
7747;SDS011;3918;42.564;23.164;2023-03-01T07:35:57;16.77;;;10.55;;
7747;SDS011;3918;42.564;23.164;2023-03-01T07:38:24;15.65;;;11.10;;
7747;SDS011;3918;42.564;23.164;2023-03-01T07:40:50;13.88;;;9.73;;
7747;SDS011;3918;42.564;23.164;2023-03-01T07:43:17;20.45;;;11.10;;
7747;SDS011;3918;42.564;23.164;2023-03-01T07:45:45;12.68;;;8.70;;
7747;SDS011;3918;42.564;23.164;2023-03-01T07:48:12;10.23;;;8.40;;
7747;SDS011;3918;42.564;23.164;2023-03-01T07:50:39;12.05;;;9.48;;
7747;SDS011;3918;42.564;23.164;2023-03-01T07:53:07;11.93;;;8.70;;
7747;SDS011;3918;42.564;23.164;2023-03-01T07:55:35;14.43;;;9.00;;
7747;SDS011;3918;42.564;23.164;2023-03-01T07:58:01;14.77;;;8.85;;
7747;SDS011;3918;42.564;23.164;2023-03-01T08:00:28;15.70;;;10.32;;
7747;SDS011;3918;42.564;23.164;2023-03-01T08:02:58;13.98;;;10.52;;
7747;SDS011;3918;42.564;23.164;2023-03-01T08:05:25;18.98;;;11.07;;
7747;SDS011;3918;42.564;23.164;2023-03-01T08:07:52;23.05;;;11.77;;
7747;SDS011;3918;42.564;23.164;2023-03-01T08:10:20;13.88;;;11.15;;
7747;SDS011;3918;42.564;23.164;2023-03-01T08:12:47;14.95;;;10.98;;
7747;SDS011;3918;42.564;23.164;2023-03-01T08:15:13;13.45;;;10.90;;
7747;SDS011;3918;42.564;23.164;2023-03-01T08:17:40;33.42;;;11.50;;
7747;SDS011;3918;42.564;23.164;2023-03-01T08:20:07;22.13;;;11.48;;
7747;SDS011;3918;42.564;23.164;2023-03-01T08:22:37;20.05;;;11.00;;
7747;SDS011;3918;42.564;23.164;2023-03-01T08:25:04;21.20;;;11.93;;
7747;SDS011;3918;42.564;23.164;2023-03-01T08:27:32;21.00;;;12.45;;
7747;SDS011;3918;42.564;23.164;2023-03-01T08:29:59;18.80;;;12.25;;
7747;SDS011;3918;42.564;23.164;2023-03-01T08:32:26;17.92;;;11.32;;
7747;SDS011;3918;42.564;23.164;2023-03-01T08:34:53;21.10;;;10.27;;
7747;SDS011;3918;42.564;23.164;2023-03-01T08:37:19;14.05;;;10.82;;
7747;SDS011;3918;42.564;23.164;2023-03-01T08:39:46;17.08;;;10.43;;
7747;SDS011;3918;42.564;23.164;2023-03-01T08:42:13;13.27;;;10.05;;
7747;SDS011;3918;42.564;23.164;2023-03-01T08:44:41;18.48;;;9.85;;
7747;SDS011;3918;42.564;23.164;2023-03-01T08:47:08;13.57;;;9.85;;
7747;SDS011;3918;42.564;23.164;2023-03-01T08:49:34;12.73;;;9.70;;
7747;SDS011;3918;42.564;23.164;2023-03-01T08:52:01;14.65;;;10.07;;
7747;SDS011;3918;42.564;23.164;2023-03-01T08:54:28;14.02;;;8.70;;
7747;SDS011;3918;42.564;23.164;2023-03-01T08:56:55;13.50;;;8.50;;
7747;SDS011;3918;42.564;23.164;2023-03-01T08:59:24;9.75;;;7.05;;
7747;SDS011;3918;42.564;23.164;2023-03-01T09:01:53;10.32;;;7.28;;
7747;SDS011;3918;42.564;23.164;2023-03-01T09:04:19;9.30;;;6.90;;
7747;SDS011;3918;42.564;23.164;2023-03-01T09:06:46;10.00;;;6.75;;
7747;SDS011;3918;42.564;23.164;2023-03-01T09:09:14;12.77;;;8.05;;
7747;SDS011;3918;42.564;23.164;2023-03-01T09:11:42;10.95;;;7.40;;
7747;SDS011;3918;42.564;23.164;2023-03-01T09:14:11;8.52;;;7.18;;
7747;SDS011;3918;42.564;23.164;2023-03-01T09:16:38;12.48;;;7.75;;
7747;SDS011;3918;42.564;23.164;2023-03-01T09:19:06;14.02;;;7.95;;
7747;SDS011;3918;42.564;23.164;2023-03-01T09:21:33;11.70;;;6.82;;
7747;SDS011;3918;42.564;23.164;2023-03-01T09:23:59;13.50;;;7.93;;
7747;SDS011;3918;42.564;23.164;2023-03-01T09:26:26;13.52;;;8.10;;
7747;SDS011;3918;42.564;23.164;2023-03-01T09:28:54;11.73;;;7.80;;
7747;SDS011;3918;42.564;23.164;2023-03-01T09:31:22;18.55;;;8.65;;
7747;SDS011;3918;42.564;23.164;2023-03-01T09:33:51;13.07;;;8.40;;
7747;SDS011;3918;42.564;23.164;2023-03-01T09:36:21;11.57;;;8.02;;
7747;SDS011;3918;42.564;23.164;2023-03-01T09:38:50;11.75;;;7.18;;
7747;SDS011;3918;42.564;23.164;2023-03-01T09:41:22;11.20;;;6.95;;
7747;SDS011;3918;42.564;23.164;2023-03-01T09:44:01;8.95;;;6.75;;
7747;SDS011;3918;42.564;23.164;2023-03-01T09:46:32;11.32;;;6.85;;
7747;SDS011;3918;42.564;23.164;2023-03-01T09:49:04;10.00;;;6.28;;
7747;SDS011;3918;42.564;23.164;2023-03-01T09:51:37;16.27;;;7.57;;
7747;SDS011;3918;42.564;23.164;2023-03-01T09:54:05;9.18;;;6.72;;
7747;SDS011;3918;42.564;23.164;2023-03-01T09:56:34;10.38;;;6.97;;
7747;SDS011;3918;42.564;23.164;2023-03-01T09:59:09;11.40;;;7.82;;
7747;SDS011;3918;42.564;23.164;2023-03-01T10:01:47;10.07;;;6.78;;
7747;SDS011;3918;42.564;23.164;2023-03-01T10:04:28;10.98;;;7.40;;
7747;SDS011;3918;42.564;23.164;2023-03-01T10:07:07;8.88;;;6.65;;
7747;SDS011;3918;42.564;23.164;2023-03-01T10:09:44;10.77;;;7.25;;
7747;SDS011;3918;42.564;23.164;2023-03-01T10:12:12;9.90;;;7.22;;
7747;SDS011;3918;42.564;23.164;2023-03-01T10:14:43;12.57;;;7.22;;
7747;SDS011;3918;42.564;23.164;2023-03-01T10:17:22;8.93;;;6.03;;
7747;SDS011;3918;42.564;23.164;2023-03-01T10:19:53;7.35;;;5.63;;
7747;SDS011;3918;42.564;23.164;2023-03-01T10:22:24;11.90;;;6.07;;
7747;SDS011;3918;42.564;23.164;2023-03-01T10:24:54;8.65;;;5.95;;
7747;SDS011;3918;42.564;23.164;2023-03-01T10:27:24;8.85;;;5.57;;
7747;SDS011;3918;42.564;23.164;2023-03-01T10:29:54;7.50;;;5.13;;
7747;SDS011;3918;42.564;23.164;2023-03-01T10:32:29;7.28;;;4.97;;
7747;SDS011;3918;42.564;23.164;2023-03-01T10:34:57;7.45;;;5.15;;
7747;SDS011;3918;42.564;23.164;2023-03-01T10:37:25;10.48;;;5.72;;
7747;SDS011;3918;42.564;23.164;2023-03-01T10:39:56;9.05;;;4.93;;
7747;SDS011;3918;42.564;23.164;2023-03-01T10:42:25;5.85;;;4.85;;
7747;SDS011;3918;42.564;23.164;2023-03-01T10:44:55;7.28;;;5.25;;
7747;SDS011;3918;42.564;23.164;2023-03-01T10:47:22;13.48;;;5.53;;
7747;SDS011;3918;42.564;23.164;2023-03-01T10:49:51;5.95;;;4.20;;
7747;SDS011;3918;42.564;23.164;2023-03-01T10:52:21;7.43;;;4.60;;
7747;SDS011;3918;42.564;23.164;2023-03-01T10:54:55;4.65;;;4.18;;
7747;SDS011;3918;42.564;23.164;2023-03-01T10:57:27;5.70;;;3.78;;
7747;SDS011;3918;42.564;23.164;2023-03-01T11:00:00;4.65;;;3.83;;
7747;SDS011;3918;42.564;23.164;2023-03-01T11:02:41;5.28;;;4.05;;
7747;SDS011;3918;42.564;23.164;2023-03-01T11:05:15;4.45;;;3.90;;
7747;SDS011;3918;42.564;23.164;2023-03-01T11:07:48;4.85;;;3.60;;
7747;SDS011;3918;42.564;23.164;2023-03-01T11:10:18;4.78;;;3.15;;
7747;SDS011;3918;42.564;23.164;2023-03-01T11:12:47;4.43;;;4.03;;
7747;SDS011;3918;42.564;23.164;2023-03-01T11:15:21;4.90;;;4.07;;
7747;SDS011;3918;42.564;23.164;2023-03-01T11:17:51;4.40;;;3.72;;
7747;SDS011;3918;42.564;23.164;2023-03-01T11:20:21;4.43;;;3.20;;
7747;SDS011;3918;42.564;23.164;2023-03-01T11:22:56;4.20;;;3.53;;
7747;SDS011;3918;42.564;23.164;2023-03-01T11:25:27;4.20;;;3.70;;
7747;SDS011;3918;42.564;23.164;2023-03-01T11:27:58;4.35;;;3.60;;
7747;SDS011;3918;42.564;23.164;2023-03-01T11:30:28;4.15;;;3.70;;
7747;SDS011;3918;42.564;23.164;2023-03-01T11:33:04;4.10;;;3.70;;
7747;SDS011;3918;42.564;23.164;2023-03-01T11:35:41;5.55;;;4.53;;
7747;SDS011;3918;42.564;23.164;2023-03-01T11:38:19;8.48;;;4.25;;
7747;SDS011;3918;42.564;23.164;2023-03-01T11:40:52;4.63;;;4.10;;
7747;SDS011;3918;42.564;23.164;2023-03-01T11:43:26;6.63;;;4.20;;
7747;SDS011;3918;42.564;23.164;2023-03-01T11:49:01;9.98;;;4.10;;
7747;SDS011;3918;42.564;23.164;2023-03-01T11:51:53;8.48;;;4.50;;
7747;SDS011;3918;42.564;23.164;2023-03-01T11:54:27;6.72;;;4.80;;
7747;SDS011;3918;42.564;23.164;2023-03-01T11:57:09;12.20;;;5.25;;
7747;SDS011;3918;42.564;23.164;2023-03-01T11:59:53;10.02;;;5.28;;
7747;SDS011;3918;42.564;23.164;2023-03-01T12:02:36;11.23;;;5.90;;
7747;SDS011;3918;42.564;23.164;2023-03-01T12:08:14;9.40;;;5.35;;
7747;SDS011;3918;42.564;23.164;2023-03-01T12:10:48;7.72;;;4.72;;
7747;SDS011;3918;42.564;23.164;2023-03-01T12:13:27;7.25;;;4.32;;
7747;SDS011;3918;42.564;23.164;2023-03-01T12:16:20;13.02;;;4.85;;
7747;SDS011;3918;42.564;23.164;2023-03-01T12:18:59;6.40;;;5.10;;
7747;SDS011;3918;42.564;23.164;2023-03-01T12:21:38;8.45;;;5.13;;
7747;SDS011;3918;42.564;23.164;2023-03-01T12:27:10;7.47;;;5.03;;
7747;SDS011;3918;42.564;23.164;2023-03-01T12:29:48;4.88;;;3.72;;
7747;SDS011;3918;42.564;23.164;2023-03-01T12:32:28;7.90;;;5.50;;
7747;SDS011;3918;42.564;23.164;2023-03-01T12:35:09;5.05;;;4.20;;
7747;SDS011;3918;42.564;23.164;2023-03-01T12:37:54;8.13;;;4.88;;
7747;SDS011;3918;42.564;23.164;2023-03-01T12:40:38;5.38;;;4.70;;
7747;SDS011;3918;42.564;23.164;2023-03-01T12:43:21;7.50;;;4.95;;
7747;SDS011;3918;42.564;23.164;2023-03-01T12:46:00;4.97;;;4.47;;
7747;SDS011;3918;42.564;23.164;2023-03-01T12:48:38;4.82;;;4.32;;
7747;SDS011;3918;42.564;23.164;2023-03-01T12:51:11;8.05;;;5.00;;
7747;SDS011;3918;42.564;23.164;2023-03-01T12:53:41;5.57;;;4.40;;
7747;SDS011;3918;42.564;23.164;2023-03-01T12:56:14;6.22;;;4.53;;
7747;SDS011;3918;42.564;23.164;2023-03-01T12:58:47;4.88;;;4.32;;
7747;SDS011;3918;42.564;23.164;2023-03-01T13:01:29;5.57;;;4.53;;
7747;SDS011;3918;42.564;23.164;2023-03-01T13:04:06;14.10;;;9.15;;
7747;SDS011;3918;42.564;23.164;2023-03-01T13:06:41;6.45;;;5.25;;
7747;SDS011;3918;42.564;23.164;2023-03-01T13:09:16;6.85;;;5.25;;
7747;SDS011;3918;42.564;23.164;2023-03-01T13:11:48;8.43;;;4.90;;
7747;SDS011;3918;42.564;23.164;2023-03-01T13:17:30;10.45;;;4.60;;
7747;SDS011;3918;42.564;23.164;2023-03-01T13:19:59;8.10;;;4.60;;
7747;SDS011;3918;42.564;23.164;2023-03-01T13:22:29;7.03;;;4.93;;
7747;SDS011;3918;42.564;23.164;2023-03-01T13:25:01;6.25;;;4.50;;
7747;SDS011;3918;42.564;23.164;2023-03-01T13:27:29;6.65;;;4.78;;
7747;SDS011;3918;42.564;23.164;2023-03-01T13:29:57;7.38;;;4.72;;
7747;SDS011;3918;42.564;23.164;2023-03-01T13:32:29;6.40;;;4.82;;
7747;SDS011;3918;42.564;23.164;2023-03-01T13:34:59;7.93;;;5.43;;
7747;SDS011;3918;42.564;23.164;2023-03-01T13:37:27;5.78;;;4.75;;
7747;SDS011;3918;42.564;23.164;2023-03-01T13:40:00;7.68;;;5.32;;
7747;SDS011;3918;42.564;23.164;2023-03-01T13:42:40;8.75;;;5.18;;
7747;SDS011;3918;42.564;23.164;2023-03-01T13:45:16;7.63;;;5.10;;
7747;SDS011;3918;42.564;23.164;2023-03-01T13:47:52;6.57;;;5.25;;
7747;SDS011;3918;42.564;23.164;2023-03-01T13:50:24;7.20;;;5.32;;
7747;SDS011;3918;42.564;23.164;2023-03-01T13:52:53;8.93;;;5.28;;
7747;SDS011;3918;42.564;23.164;2023-03-01T13:55:25;6.65;;;4.63;;
7747;SDS011;3918;42.564;23.164;2023-03-01T13:58:03;6.93;;;4.50;;
7747;SDS011;3918;42.564;23.164;2023-03-01T14:00:39;7.50;;;5.03;;
7747;SDS011;3918;42.564;23.164;2023-03-01T14:03:12;6.25;;;4.57;;
7747;SDS011;3918;42.564;23.164;2023-03-01T14:05:42;6.53;;;5.13;;
7747;SDS011;3918;42.564;23.164;2023-03-01T14:08:23;7.18;;;5.45;;
7747;SDS011;3918;42.564;23.164;2023-03-01T14:16:53;10.35;;;5.50;;
7747;SDS011;3918;42.564;23.164;2023-03-01T14:19:29;9.40;;;5.63;;
7747;SDS011;3918;42.564;23.164;2023-03-01T14:22:02;7.35;;;5.93;;
7747;SDS011;3918;42.564;23.164;2023-03-01T14:24:39;7.05;;;5.70;;
7747;SDS011;3918;42.564;23.164;2023-03-01T14:27:12;10.77;;;5.57;;
7747;SDS011;3918;42.564;23.164;2023-03-01T14:29:40;13.88;;;6.40;;
7747;SDS011;3918;42.564;23.164;2023-03-01T14:32:11;14.05;;;5.45;;
7747;SDS011;3918;42.564;23.164;2023-03-01T14:34:43;8.05;;;5.72;;
7747;SDS011;3918;42.564;23.164;2023-03-01T14:37:16;11.95;;;5.68;;
7747;SDS011;3918;42.564;23.164;2023-03-01T14:39:46;9.43;;;6.50;;
7747;SDS011;3918;42.564;23.164;2023-03-01T14:42:13;8.95;;;6.13;;
7747;SDS011;3918;42.564;23.164;2023-03-01T14:44:40;9.18;;;6.85;;
7747;SDS011;3918;42.564;23.164;2023-03-01T14:47:10;7.60;;;5.47;;
7747;SDS011;3918;42.564;23.164;2023-03-01T14:49:39;9.52;;;6.18;;
7747;SDS011;3918;42.564;23.164;2023-03-01T14:52:16;7.78;;;5.22;;
7747;SDS011;3918;42.564;23.164;2023-03-01T14:54:47;6.82;;;5.10;;
7747;SDS011;3918;42.564;23.164;2023-03-01T14:57:15;11.40;;;6.22;;
7747;SDS011;3918;42.564;23.164;2023-03-01T14:59:45;7.63;;;5.45;;
7747;SDS011;3918;42.564;23.164;2023-03-01T15:02:13;8.35;;;5.45;;
7747;SDS011;3918;42.564;23.164;2023-03-01T15:04:45;8.82;;;5.55;;
7747;SDS011;3918;42.564;23.164;2023-03-01T15:07:16;7.30;;;5.32;;
7747;SDS011;3918;42.564;23.164;2023-03-01T15:09:45;10.70;;;5.65;;
7747;SDS011;3918;42.564;23.164;2023-03-01T15:12:32;7.53;;;5.15;;